This is the latest recevied weather packets stored in our database for station/object KF7SOJ. If no packets are shown the sender has not sent any weather packets the latest 10 day(s).
| Time | Temp. | Humidity | Pressure | Rain* | Wind** | Luminosity | Snow |
|---|---|---|---|---|---|---|---|
| 1777710705 | 12.22° C | 32% | 932.2 hPa | 0 mm | - | 0 W/m² | - |
| 1777710402 | 12.22° C | 32% | 932.2 hPa | 0 mm | - | 0 W/m² | - |
| 1777710098 | 12.22° C | 32% | 932.2 hPa | 0 mm | - | 0 W/m² | - |
| 1777709796 | 12.22° C | 32% | 932.2 hPa | 0 mm | - | 0 W/m² | - |
| 1777709493 | 12.22° C | 32% | 932.3 hPa | 0 mm | - | 0 W/m² | - |
| 1777709191 | 12.22° C | 31% | 932.3 hPa | 0 mm | - | 0 W/m² | - |
| 1777708888 | 12.78° C | 31% | 932.4 hPa | 0 mm | - | 0 W/m² | - |
| 1777708586 | 12.22° C | 31% | 932.3 hPa | 0 mm | - | 0 W/m² | - |
| 1777708284 | 11.67° C | 33% | 932.2 hPa | 0 mm | - | 0 W/m² | - |
| 1777707981 | 11.67° C | 33% | 932.5 hPa | 0 mm | - | 0 W/m² | - |
| 1777707677 | 11.11° C | 34% | 932.3 hPa | 0 mm | - | 0 W/m² | - |
| 1777707374 | 11.11° C | 34% | 932.4 hPa | 0 mm | - | 0 W/m² | - |
| 1777707070 | 11.11° C | 34% | 932.4 hPa | 0 mm | - | 0 W/m² | - |
| 1777706768 | 12.22° C | 32% | 932.5 hPa | 0 mm | - | 0 W/m² | - |
| 1777706466 | 12.22° C | 32% | 932.9 hPa | 0 mm | - | 0 W/m² | - |
| 1777706163 | 11.67° C | 33% | 932.8 hPa | 0 mm | - | 0 W/m² | - |
| 1777705861 | 12.22° C | 33% | 932.7 hPa | 0 mm | - | 0 W/m² | - |
| 1777705559 | 12.22° C | 32% | 932.8 hPa | 0 mm | - | 0 W/m² | - |
| 1777705257 | 11.11° C | 34% | 932.8 hPa | 0 mm | - | 0 W/m² | - |
| 1777704955 | 10° C | 38% | 932.8 hPa | 0 mm | - | 0 W/m² | - |
| 1777704652 | 10.56° C | 37% | 932.9 hPa | 0 mm | - | 0 W/m² | - |
| 1777704351 | 10.56° C | 37% | 932.8 hPa | 0 mm | - | 0 W/m² | - |
| 1777704048 | 10.56° C | 37% | 932.9 hPa | 0 mm | - | 0 W/m² | - |
| 1777703745 | 10.56° C | 37% | 932.8 hPa | 0 mm | - | 0 W/m² | - |
| 1777703443 | 11.11° C | 36% | 932.8 hPa | 0 mm | - | 0 W/m² | - |
* Rain latest hour (hover to see other rain measurements)
** Current wind speed in m/s (hover to see current wind gust speed)